Time;durP1;ratioP1;P1;durP2;ratioP2;P2;SDS_P1;SDS_P2;PMS_P1;PMS_P2;Temp;Humidity;BMP_temperature;BMP_pressure;BME280_temperature;BME280_humidity;BME280_pressure;Samples;Min_cycle;Max_cycle;Signal;HPM_P1;HPM_P2
2022/01/03 00:02:25;;;;;;;37.47;22.73;;;;;;;7.33;100.00;100432.66;5050096;28;20082;-67
2022/01/03 00:04:51;;;;;;;36.33;23.15;;;;;;;7.33;100.00;100442.47;5031227;28;20060;-67
2022/01/03 00:07:17;;;;;;;34.72;22.02;;;;;;;7.34;100.00;100438.81;5047667;28;20059;-68
2022/01/03 00:09:43;;;;;;;32.90;21.08;;;;;;;7.32;100.00;100436.25;5047904;28;20037;-66
2022/01/03 00:12:09;;;;;;;33.25;21.35;;;;;;;7.31;100.00;100423.03;5048846;28;20036;-68
2022/01/03 00:14:35;;;;;;;29.48;20.17;;;;;;;7.26;100.00;100417.19;5048111;28;20041;-67
2022/01/03 00:17:00;;;;;;;32.28;20.23;;;;;;;7.29;100.00;100411.66;5051205;28;20048;-68
2022/01/03 00:19:26;;;;;;;35.15;21.50;;;;;;;7.25;100.00;100420.84;5048356;28;20513;-68
2022/01/03 00:21:55;;;;;;;33.88;21.35;;;;;;;7.20;100.00;100390.97;5047934;28;20176;-68
2022/01/03 00:24:26;;;;;;;32.67;19.17;;;;;;;7.19;100.00;100430.09;5048151;28;20028;-67
2022/01/03 00:26:59;;;;;;;30.33;19.80;;;;;;;7.19;100.00;100407.94;5048079;28;20017;-67
2022/01/03 00:29:27;;;;;;;31.43;20.80;;;;;;;7.16;100.00;100400.16;5051977;28;20042;-68
2022/01/03 00:31:57;;;;;;;32.35;20.85;;;;;;;7.13;100.00;100398.56;5050004;28;20281;-67
2022/01/03 00:34:27;;;;;;;35.28;20.13;;;;;;;7.15;100.00;100395.81;5030220;28;20044;-68
2022/01/03 00:36:55;;;;;;;32.40;20.92;;;;;;;7.14;100.00;100394.06;5030071;28;20044;-69
2022/01/03 00:39:21;;;;;;;30.15;19.27;;;;;;;7.11;100.00;100388.97;5043835;28;20051;-68
2022/01/03 00:41:48;;;;;;;32.22;20.88;;;;;;;7.06;100.00;100402.63;5067802;28;20440;-68
2022/01/03 00:44:14;;;;;;;32.20;20.80;;;;;;;7.06;100.00;100385.78;5055818;28;20389;-67
2022/01/03 00:46:42;;;;;;;33.95;21.10;;;;;;;7.00;100.00;100369.25;5047976;28;20025;-67
2022/01/03 00:49:07;;;;;;;30.25;19.95;;;;;;;6.97;100.00;100358.81;5048037;28;20025;-68
2022/01/03 00:51:35;;;;;;;33.47;20.60;;;;;;;7.02;100.00;100373.66;5048071;28;20056;-68
2022/01/03 00:54:01;;;;;;;31.85;20.17;;;;;;;7.02;100.00;100363.00;5055551;28;20171;-68
2022/01/03 00:56:32;;;;;;;30.00;20.00;;;;;;;7.04;100.00;100364.56;5054134;28;20025;-68
2022/01/03 00:59:11;;;;;;;32.10;19.60;;;;;;;7.02;100.00;100365.66;5056377;28;20028;-67
2022/01/03 01:01:41;;;;;;;29.60;20.45;;;;;;;6.93;100.00;100365.34;5047516;28;20028;-66
2022/01/03 01:04:08;;;;;;;31.38;20.70;;;;;;;6.91;100.00;100364.59;5067581;28;20052;-68
2022/01/03 01:06:36;;;;;;;32.85;20.83;;;;;;;6.92;100.00;100376.13;5065080;28;20020;-69
2022/01/03 01:09:04;;;;;;;37.15;21.83;;;;;;;6.88;100.00;100396.81;5067563;28;20040;-67
2022/01/03 01:11:31;;;;;;;32.53;19.77;;;;;;;6.87;100.00;100386.28;5067845;28;20032;-67
2022/01/03 01:13:58;;;;;;;31.83;20.70;;;;;;;6.81;100.00;100382.19;5056832;28;20516;-67
2022/01/03 01:16:24;;;;;;;28.40;19.77;;;;;;;6.87;100.00;100397.75;5047531;28;20068;-68
2022/01/03 01:18:50;;;;;;;33.17;20.85;;;;;;;6.87;100.00;100399.59;5048433;28;20036;-68
2022/01/03 01:21:16;;;;;;;34.08;20.58;;;;;;;6.84;100.00;100384.66;5034117;28;20017;-68
2022/01/03 01:23:43;;;;;;;31.10;20.60;;;;;;;6.86;100.00;100374.75;5051860;28;20473;-67
2022/01/03 01:28:53;;;;;;;33.10;21.27;;;;;;;6.94;100.00;100363.53;5051153;28;20052;-67
2022/01/03 01:31:21;;;;;;;34.20;21.05;;;;;;;6.85;100.00;100346.41;5050993;28;20029;-68
2022/01/03 01:33:52;;;;;;;32.20;20.75;;;;;;;6.91;100.00;100361.91;5050712;28;20049;-68
2022/01/03 01:36:18;;;;;;;32.15;19.88;;;;;;;6.91;100.00;100361.91;5053495;28;20029;-66
2022/01/03 01:38:50;;;;;;;31.02;19.92;;;;;;;6.85;100.00;100354.38;5050668;28;20725;-67
2022/01/03 01:41:18;;;;;;;29.17;19.85;;;;;;;6.93;100.00;100364.47;5032815;28;20079;-68
2022/01/03 01:43:46;;;;;;;30.08;18.90;;;;;;;6.87;100.00;100356.94;5052563;28;20038;-67
2022/01/03 01:46:14;;;;;;;31.85;19.42;;;;;;;6.81;100.00;100336.06;5059810;28;20066;-67
2022/01/03 01:48:43;;;;;;;30.25;19.55;;;;;;;6.84;100.00;100351.84;5050443;28;20473;-67
2022/01/03 01:51:11;;;;;;;30.85;20.38;;;;;;;6.80;100.00;100345.84;5050468;28;20052;-68
2022/01/03 01:53:42;;;;;;;31.48;20.00;;;;;;;6.79;100.00;100336.16;5032800;28;20029;-67
2022/01/03 01:56:15;;;;;;;30.60;19.02;;;;;;;6.77;100.00;100334.56;5050428;28;20497;-67
2022/01/03 01:59:09;;;;;;;28.95;18.48;;;;;;;6.74;100.00;100346.28;5032862;28;20055;-67
2022/01/03 02:01:50;;;;;;;30.85;19.60;;;;;;;6.72;100.00;100344.72;5050773;28;20028;-67
2022/01/03 02:04:28;;;;;;;29.25;18.10;;;;;;;6.69;100.00;100348.47;5068263;28;20392;-67
2022/01/03 02:06:56;;;;;;;27.60;17.73;;;;;;;6.65;100.00;100348.78;5044517;28;20075;-68
2022/01/03 02:09:41;;;;;;;29.08;19.30;;;;;;;6.62;100.00;100339.16;5050645;28;20171;-67
2022/01/03 02:12:13;;;;;;;33.95;20.55;;;;;;;6.65;100.00;100332.78;5050069;28;20029;-68
2022/01/03 02:14:39;;;;;;;31.30;19.30;;;;;;;6.60;100.00;100329.59;5049196;28;20101;-67
2022/01/03 02:17:05;;;;;;;30.92;18.73;;;;;;;6.59;100.00;100339.41;5069786;28;20127;-67
2022/01/03 02:19:35;;;;;;;29.92;18.90;;;;;;;6.59;100.00;100347.41;5070219;28;20521;-67
2022/01/03 02:22:00;;;;;;;33.78;20.45;;;;;;;6.64;100.00;100355.91;5064733;28;20078;-68
2022/01/03 02:24:26;;;;;;;28.55;18.15;;;;;;;6.62;100.00;100349.81;5050091;28;20024;-69
2022/01/03 02:26:52;;;;;;;28.02;18.50;;;;;;;6.59;100.00;100347.41;5049745;28;20033;-68
2022/01/03 02:29:17;;;;;;;28.50;19.70;;;;;;;6.62;100.00;100349.81;5051658;28;20033;-68
2022/01/03 02:31:43;;;;;;;31.77;19.63;;;;;;;6.60;100.00;100351.75;5069434;28;20032;-66
2022/01/03 02:34:08;;;;;;;31.70;20.08;;;;;;;6.60;100.00;100350.91;5058667;28;20029;-68
2022/01/03 02:36:35;;;;;;;28.88;19.10;;;;;;;6.57;100.00;100349.31;5049986;28;20082;-68
2022/01/03 02:39:01;;;;;;;33.03;19.25;;;;;;;6.56;100.00;100342.28;5049422;28;20033;-68
2022/01/03 02:41:26;;;;;;;29.13;19.17;;;;;;;6.55;100.00;100335.25;5031992;28;20036;-68
2022/01/03 02:43:52;;;;;;;29.17;20.27;;;;;;;6.55;100.00;100335.25;5058932;28;20120;-68
2022/01/03 02:46:18;;;;;;;26.40;18.33;;;;;;;6.48;100.00;100325.16;5069348;28;20786;-67
2022/01/03 02:48:43;;;;;;;31.63;19.48;;;;;;;6.57;100.00;100346.66;5060979;28;20039;-66
2022/01/03 02:51:11;;;;;;;31.48;19.95;;;;;;;6.51;100.00;100340.91;5050806;28;20478;-68
2022/01/03 02:53:38;;;;;;;31.35;19.67;;;;;;;6.51;100.00;100339.09;5049439;28;20115;-67
2022/01/03 02:56:04;;;;;;;29.45;19.40;;;;;;;6.49;100.00;100338.34;5049244;28;20060;-67
2022/01/03 02:58:29;;;;;;;27.20;18.55;;;;;;;6.48;100.00;100341.13;5031361;28;20603;-68
2022/01/03 03:00:54;;;;;;;27.83;18.33;;;;;;;6.45;100.00;100338.69;5048894;28;20036;-68
2022/01/03 03:03:21;;;;;;;29.05;18.85;;;;;;;6.40;100.00;100343.47;5035705;28;20025;-68
2022/01/03 03:05:47;;;;;;;26.13;18.23;;;;;;;6.36;100.00;100342.81;5068963;28;20031;-68
2022/01/03 03:08:13;;;;;;;29.20;18.17;;;;;;;6.35;100.00;100346.47;5050431;28;20032;-68
2022/01/03 03:10:40;;;;;;;34.13;19.38;;;;;;;6.33;100.00;100339.53;5055230;28;20106;-67
2022/01/03 03:13:06;;;;;;;29.52;18.83;;;;;;;6.28;100.00;100331.88;5047402;28;20017;-67
2022/01/03 03:15:33;;;;;;;28.15;18.70;;;;;;;6.28;100.00;100337.19;5067661;28;20128;-68
2022/01/03 03:17:59;;;;;;;31.88;18.98;;;;;;;6.26;100.00;100347.09;5041648;28;20050;-68
2022/01/03 03:20:29;;;;;;;29.98;18.90;;;;;;;6.26;100.00;100352.41;5065161;28;20108;-67
2022/01/03 03:22:56;;;;;;;26.65;18.35;;;;;;;6.21;100.00;100341.25;5057472;28;20028;-67
2022/01/03 03:25:27;;;;;;;30.27;19.60;;;;;;;6.15;100.00;100349.66;5064955;28;20113;-67
2022/01/03 03:28:00;;;;;;;28.05;18.50;;;;;;;6.18;100.00;100356.56;5056680;28;20028;-68
2022/01/03 03:30:31;;;;;;;28.17;18.05;;;;;;;6.05;100.00;100335.28;5049778;28;20055;-67
2022/01/03 03:33:10;;;;;;;24.95;17.45;;;;;;;6.10;100.00;100362.44;5048691;28;20107;-67
2022/01/03 03:35:36;;;;;;;29.20;19.08;;;;;;;6.03;100.00;100362.97;5065701;28;20028;-66
2022/01/03 03:38:02;;;;;;;29.20;19.63;;;;;;;5.94;100.00;100348.47;5049912;28;20469;-67
2022/01/03 03:40:28;;;;;;;27.08;18.08;;;;;;;5.93;100.00;100362.72;5050385;28;20086;-67
2022/01/03 03:42:54;;;;;;;27.80;18.38;;;;;;;5.94;100.00;100353.78;5067235;28;20048;-75
2022/01/03 03:45:20;;;;;;;30.67;19.27;;;;;;;5.93;100.00;100354.75;5037801;28;20041;-76
2022/01/03 03:47:45;;;;;;;32.78;19.83;;;;;;;5.91;100.00;100342.50;5057106;28;20037;-75
2022/01/03 03:50:11;;;;;;;28.10;18.75;;;;;;;5.91;100.00;100342.50;5067239;28;20507;-75
2022/01/03 03:52:38;;;;;;;29.13;18.92;;;;;;;5.89;100.00;100337.28;5060022;28;20035;-76
2022/01/03 03:55:05;;;;;;;28.88;18.55;;;;;;;5.82;100.00;100320.03;5063616;28;20666;-75
2022/01/03 03:57:31;;;;;;;26.83;18.65;;;;;;;5.89;100.00;100331.09;5061499;28;20047;-76
2022/01/03 03:59:56;;;;;;;36.92;20.40;;;;;;;5.86;100.00;100318.00;5046142;28;20050;-75
2022/01/03 04:02:22;;;;;;;33.55;21.27;;;;;;;5.94;100.00;100329.00;5053606;28;20025;-76
2022/01/03 04:04:47;;;;;;;29.55;19.65;;;;;;;5.89;100.00;100313.34;5035101;28;20127;-75
2022/01/03 04:07:13;;;;;;;28.80;19.38;;;;;;;5.94;100.00;100316.53;5062296;28;20042;-75
2022/01/03 04:09:38;;;;;;;30.13;19.75;;;;;;;5.97;100.00;100323.47;5061491;28;20032;-74
2022/01/03 04:12:05;;;;;;;29.90;18.13;;;;;;;5.96;100.00;100322.59;5064532;28;20093;-76
2022/01/03 04:14:31;;;;;;;31.35;19.35;;;;;;;5.95;100.00;100320.91;5061892;28;20036;-75
2022/01/03 04:16:56;;;;;;;31.88;19.13;;;;;;;5.95;100.00;100312.06;5060211;28;20081;-75
2022/01/03 04:19:22;;;;;;;28.80;19.15;;;;;;;5.95;100.00;100312.91;5060613;28;20028;-75
2022/01/03 04:21:47;;;;;;;26.40;17.98;;;;;;;5.99;100.00;100314.41;5059710;28;20027;-75
2022/01/03 04:24:13;;;;;;;28.35;18.30;;;;;;;5.95;100.00;100312.91;5061915;28;20550;-67
2022/01/03 04:26:39;;;;;;;29.08;18.90;;;;;;;6.01;100.00;100317.81;5067991;28;20115;-68
2022/01/03 04:29:06;;;;;;;28.25;18.50;;;;;;;5.90;100.00;100296.41;5049493;28;20082;-67
2022/01/03 04:31:33;;;;;;;25.38;17.98;;;;;;;5.96;100.00;100306.63;5064940;28;20044;-68
2022/01/03 04:33:59;;;;;;;27.27;17.40;;;;;;;5.94;100.00;100316.53;5067730;28;20029;-68
2022/01/03 04:36:26;;;;;;;27.95;17.88;;;;;;;5.92;100.00;100313.13;5050239;28;20032;-67
2022/01/03 04:38:52;;;;;;;24.95;17.15;;;;;;;5.85;100.00;100298.53;5061364;28;20040;-68
2022/01/03 04:41:18;;;;;;;26.20;17.95;;;;;;;5.91;100.00;100314.09;5067467;28;20033;-67
2022/01/03 04:43:44;;;;;;;25.38;17.58;;;;;;;5.86;100.00;100310.03;5067729;28;20024;-66
2022/01/03 04:46:10;;;;;;;25.23;17.70;;;;;;;5.84;100.00;100318.09;5053432;28;20112;-66
2022/01/03 04:48:37;;;;;;;24.58;17.05;;;;;;;5.76;100.00;100303.59;5047827;28;20048;-67
2022/01/03 04:51:03;;;;;;;27.73;17.30;;;;;;;5.75;100.00;100309.88;5049412;28;20643;-67
2022/01/03 04:53:29;;;;;;;23.88;16.70;;;;;;;5.70;100.00;100302.22;5060723;28;20044;-67
2022/01/03 04:55:55;;;;;;;26.80;17.27;;;;;;;5.70;100.00;100317.31;5051153;28;20083;-67
2022/01/03 04:58:20;;;;;;;26.23;17.13;;;;;;;5.63;100.00;100308.03;5066320;28;20013;-67
2022/01/03 05:00:47;;;;;;;26.48;17.00;;;;;;;5.62;100.00;100322.31;5071133;28;20488;-68
2022/01/03 05:03:13;;;;;;;26.83;18.05;;;;;;;5.58;100.00;100332.28;5070831;28;20020;-68
2022/01/03 05:05:38;;;;;;;24.70;17.10;;;;;;;5.53;100.00;100314.94;5071064;28;20043;-67
2022/01/03 05:08:05;;;;;;;27.42;17.65;;;;;;;5.48;100.00;100315.25;5036490;28;20044;-66
2022/01/03 05:10:30;;;;;;;29.17;17.00;;;;;;;5.41;100.00;100313.97;5051240;28;20035;-67
2022/01/03 05:12:56;;;;;;;25.30;18.40;;;;;;;5.36;100.00;100321.41;5050880;28;20480;-68
2022/01/03 05:15:22;;;;;;;28.55;17.20;;;;;;;5.36;100.00;100316.09;5053335;28;20044;-68
2022/01/03 05:17:47;;;;;;;28.23;17.40;;;;;;;5.34;100.00;100323.31;5053104;28;20165;-67
2022/01/03 05:20:14;;;;;;;28.73;16.98;;;;;;;5.32;100.00;100311.91;5032730;28;20057;-67
2022/01/03 05:22:40;;;;;;;28.77;18.17;;;;;;;5.31;100.00;100320.84;5058398;28;20037;-67
2022/01/03 05:25:06;;;;;;;30.35;18.50;;;;;;;5.27;100.00;100315.84;5052930;28;20029;-69
2022/01/03 05:27:33;;;;;;;27.83;18.17;;;;;;;5.22;100.00;100302.00;5051824;28;20059;-67
2022/01/03 05:29:59;;;;;;;28.15;18.73;;;;;;;5.21;100.00;100308.25;5050645;28;20426;-67
2022/01/03 05:32:24;;;;;;;28.90;18.30;;;;;;;5.13;100.00;100303.47;5050263;28;20120;-68
2022/01/03 05:34:49;;;;;;;28.23;18.63;;;;;;;5.13;100.00;100303.47;5056597;28;20466;-67
2022/01/03 05:37:15;;;;;;;29.90;19.08;;;;;;;5.11;100.00;100305.38;5050916;28;20544;-67
2022/01/03 05:39:41;;;;;;;29.10;18.70;;;;;;;5.08;100.00;100323.31;5058155;28;20025;-66
2022/01/03 05:42:07;;;;;;;26.83;18.00;;;;;;;5.06;100.00;100310.13;5052053;28;20764;-67
2022/01/03 05:44:32;;;;;;;31.70;18.95;;;;;;;5.04;100.00;100312.03;5070424;28;20055;-67
2022/01/03 05:46:57;;;;;;;28.45;18.25;;;;;;;5.04;100.00;100322.69;5069910;28;20037;-67
2022/01/03 05:49:23;;;;;;;26.15;18.27;;;;;;;5.03;100.00;100317.47;5070190;28;20101;-67
2022/01/03 05:51:49;;;;;;;28.20;17.60;;;;;;;4.96;100.00;100314.31;5065497;28;20127;-68
2022/01/03 05:54:14;;;;;;;28.92;19.75;;;;;;;4.87;100.00;100304.28;5051180;28;20109;-68
2022/01/03 05:56:39;;;;;;;29.08;18.60;;;;;;;4.96;100.00;100316.97;5069258;28;20044;-68
2022/01/03 05:59:07;;;;;;;30.92;19.83;;;;;;;5.00;100.00;100328.28;5069026;28;20020;-68
2022/01/03 06:01:34;;;;;;;30.50;19.90;;;;;;;4.98;100.00;100303.59;5068843;28;20032;-68
2022/01/03 06:04:11;;;;;;;33.40;20.25;;;;;;;5.02;100.00;100294.47;5068406;28;20029;-67
2022/01/03 06:06:55;;;;;;;31.05;19.50;;;;;;;5.04;100.00;100306.72;5051021;28;20416;-67
2022/01/03 06:09:22;;;;;;;31.92;19.38;;;;;;;5.09;100.00;100301.94;5069133;28;20439;-67
2022/01/03 06:11:48;;;;;;;29.40;18.33;;;;;;;5.13;100.00;100308.78;5049166;28;20032;-68
2022/01/03 06:14:20;;;;;;;26.42;18.23;;;;;;;5.18;100.00;100306.66;5048760;28;20052;-68
2022/01/03 06:16:47;;;;;;;29.33;18.20;;;;;;;5.23;100.00;100303.72;5048604;28;20032;-68
2022/01/03 06:19:14;;;;;;;27.20;18.83;;;;;;;5.30;100.00;100321.81;5048340;28;20080;-67
2022/01/03 06:21:43;;;;;;;32.30;19.40;;;;;;;5.34;100.00;100314.47;5048961;28;20027;-67
2022/01/03 06:24:09;;;;;;;28.52;17.95;;;;;;;5.40;100.00;100312.28;5048696;28;20100;-67
2022/01/03 06:26:37;;;;;;;30.38;19.08;;;;;;;5.45;100.00;100314.63;5048699;28;20432;-67
2022/01/03 06:29:04;;;;;;;27.58;18.77;;;;;;;5.50;100.00;100316.00;5057964;28;20451;-68
2022/01/03 06:31:29;;;;;;;25.92;18.23;;;;;;;5.51;100.00;100307.06;5068604;28;20533;-68
2022/01/03 06:33:55;;;;;;;26.10;17.13;;;;;;;5.59;100.00;100323.38;5068221;28;20020;-67
2022/01/03 06:36:20;;;;;;;26.48;17.02;;;;;;;5.62;100.00;100314.34;5068571;28;20017;-66
2022/01/03 06:38:45;;;;;;;28.98;18.40;;;;;;;5.61;100.00;100316.13;5040357;28;20016;-67
2022/01/03 06:41:11;;;;;;;27.20;18.08;;;;;;;5.67;100.00;100320.22;5064082;28;20029;-68
2022/01/03 06:46:58;;;;;;;23.92;16.15;;;;;;;5.76;100.00;100319.56;5083173;22;20587;-68
2022/01/03 06:49:24;;;;;;;29.63;16.65;;;;;;;5.78;100.00;100315.00;5085161;28;20028;-68
2022/01/03 06:51:49;;;;;;;26.08;17.00;;;;;;;5.79;100.00;100320.22;5055502;28;20024;-68
2022/01/03 06:54:15;;;;;;;26.10;16.60;;;;;;;5.87;100.00;100325.06;5086011;28;20024;-68
2022/01/03 06:56:43;;;;;;;26.05;17.27;;;;;;;5.86;100.00;100315.34;5054702;28;20468;-67
2022/01/03 06:59:09;;;;;;;26.50;16.92;;;;;;;5.92;100.00;100315.78;5087798;28;20047;-68
2022/01/03 07:01:34;;;;;;;26.95;17.60;;;;;;;5.94;100.00;100308.53;5086955;28;20488;-68
2022/01/03 07:04:00;;;;;;;24.95;16.75;;;;;;;5.96;100.00;100308.44;5089263;28;20027;-69
2022/01/03 07:06:26;;;;;;;29.00;17.77;;;;;;;5.97;100.00;100313.66;5089254;28;20063;-69
2022/01/03 07:08:51;;;;;;;26.20;15.77;;;;;;;6.03;100.00;100312.41;5089431;28;20031;-68
2022/01/03 07:11:17;;;;;;;27.25;17.88;;;;;;;6.06;100.00;100312.19;5063403;28;20032;-68
2022/01/03 07:13:49;;;;;;;26.00;16.63;;;;;;;6.08;100.00;100304.94;5069937;28;20533;-68
2022/01/03 07:19:00;;;;;;;27.98;17.38;;;;;;;6.21;100.00;100311.09;5089557;28;20514;-68
2022/01/03 07:21:28;;;;;;;25.25;16.33;;;;;;;6.23;100.00;100309.19;5089620;28;20127;-68
2022/01/03 07:23:55;;;;;;;26.02;17.73;;;;;;;6.33;100.00;100315.56;5071292;28;20041;-68
2022/01/03 07:26:21;;;;;;;27.52;17.45;;;;;;;6.31;100.00;100313.00;5090177;28;20016;-68
2022/01/03 07:28:47;;;;;;;25.88;17.20;;;;;;;6.37;100.00;100322.38;5074479;28;20499;-68
2022/01/03 07:31:12;;;;;;;27.95;16.77;;;;;;;6.36;100.00;100318.03;5069283;28;20540;-69
2022/01/03 07:33:38;;;;;;;26.98;16.80;;;;;;;6.42;100.00;100314.94;5051478;28;20024;-67
2022/01/03 07:36:04;;;;;;;29.48;17.77;;;;;;;6.45;100.00;100326.19;5069641;28;20539;-67
2022/01/03 07:38:29;;;;;;;24.20;16.17;;;;;;;6.45;100.00;100307.56;5069423;28;20016;-68
2022/01/03 07:40:55;;;;;;;26.55;16.90;;;;;;;6.53;100.00;100318.53;5051526;28;20040;-68
2022/01/03 07:43:20;;;;;;;27.75;17.45;;;;;;;6.50;100.00;100304.56;5069940;28;20029;-69
2022/01/03 07:45:46;;;;;;;26.00;16.80;;;;;;;6.46;100.00;100295.09;5051393;28;20055;-68
2022/01/03 07:48:11;;;;;;;24.17;15.85;;;;;;;6.63;100.00;100314.25;5068333;28;20035;-68
2022/01/03 07:50:37;;;;;;;23.35;14.68;;;;;;;6.62;100.00;100320.50;5068557;28;20029;-69
2022/01/03 07:53:04;;;;;;;25.63;16.23;;;;;;;6.59;100.00;100307.44;5068440;28;20158;-68
2022/01/03 07:55:30;;;;;;;26.00;15.98;;;;;;;6.70;100.00;100314.63;5050504;28;20025;-68
2022/01/03 07:57:55;;;;;;;21.38;15.10;;;;;;;6.78;100.00;100328.28;5068329;28;20032;-67
2022/01/03 08:00:23;;;;;;;21.45;14.27;;;;;;;6.86;100.00;100323.22;5068850;28;20075;-68
2022/01/03 08:02:49;;;;;;;22.10;14.13;;;;;;;6.82;100.00;100308.44;5068125;28;20093;-68
2022/01/03 08:05:15;;;;;;;20.40;13.88;;;;;;;6.93;100.00;100312.03;5064433;28;20024;-69
2022/01/03 08:07:42;;;;;;;20.17;13.98;;;;;;;6.94;100.00;100315.53;5088602;28;20369;-68
2022/01/03 08:10:09;;;;;;;23.90;14.63;;;;;;;7.03;100.00;100314.03;5088604;28;20035;-69
2022/01/03 08:12:37;;;;;;;21.10;14.13;;;;;;;7.04;100.00;100306.75;5069558;28;20035;-68
2022/01/03 08:15:04;;;;;;;23.00;13.38;;;;;;;7.07;100.00;100307.50;5088332;28;20510;-69
2022/01/03 08:17:29;;;;;;;24.38;13.20;;;;;;;7.16;100.00;100306.81;5087788;28;20555;-69
2022/01/03 08:19:54;;;;;;;20.92;12.50;;;;;;;7.21;100.00;100299.31;5070375;28;20081;-68
2022/01/03 08:22:20;;;;;;;18.88;12.85;;;;;;;7.26;100.00;100308.69;5068401;28;20115;-68
2022/01/03 08:24:45;;;;;;;19.05;12.35;;;;;;;7.32;100.00;100307.38;5054564;28;20040;-68
2022/01/03 08:27:11;;;;;;;19.83;12.93;;;;;;;7.37;100.00;100315.88;5072271;28;20082;-68
2022/01/03 08:29:37;;;;;;;18.90;12.95;;;;;;;7.41;100.00;100315.53;5086998;28;20027;-69
2022/01/03 08:32:03;;;;;;;19.23;12.02;;;;;;;7.50;100.00;100305.97;5092702;28;20472;-68
2022/01/03 08:34:28;;;;;;;19.50;13.10;;;;;;;7.52;100.00;100306.72;5092755;28;20036;-68
2022/01/03 08:36:54;;;;;;;31.58;13.73;;;;;;;7.57;100.00;100302.75;5093037;28;20085;-68
2022/01/03 08:39:19;;;;;;;19.65;13.27;;;;;;;7.74;99.14;100304.97;5074369;28;20030;-68
2022/01/03 08:41:45;;;;;;;16.90;11.85;;;;;;;7.74;99.16;100301.47;5092723;28;20103;-69
2022/01/03 08:44:11;;;;;;;21.30;12.40;;;;;;;7.89;98.65;100324.31;5073769;28;20027;-68
2022/01/03 08:46:36;;;;;;;16.80;11.65;;;;;;;7.90;98.53;100318.84;5072067;28;20052;-69
2022/01/03 08:49:02;;;;;;;18.48;11.52;;;;;;;8.04;96.39;100321.34;5072511;28;20029;-69
2022/01/03 08:51:28;;;;;;;19.33;11.60;;;;;;;8.07;96.83;100329.09;5072590;28;20703;-69
2022/01/03 08:53:54;;;;;;;15.38;11.43;;;;;;;8.17;95.75;100332.75;5054470;28;20017;-68
2022/01/03 08:56:20;;;;;;;18.40;11.63;;;;;;;8.13;95.56;100325.09;5054326;28;20036;-68
2022/01/03 08:58:45;;;;;;;19.90;12.02;;;;;;;8.28;94.35;100338.16;5072354;28;20117;-67
2022/01/03 09:01:10;;;;;;;16.92;11.70;;;;;;;8.31;93.80;100342.38;5071867;28;20032;-67
2022/01/03 09:03:36;;;;;;;17.50;11.27;;;;;;;8.29;94.32;100341.69;5072132;28;20112;-67
2022/01/03 09:06:02;;;;;;;16.65;11.00;;;;;;;8.32;93.83;100350.28;5072020;28;20027;-69
2022/01/03 09:08:27;;;;;;;18.52;11.80;;;;;;;8.34;93.42;100347.50;5072182;28;20032;-68
2022/01/03 09:10:53;;;;;;;19.60;12.15;;;;;;;8.51;92.87;100334.50;5071983;28;20063;-69
2022/01/03 09:13:20;;;;;;;15.23;10.90;;;;;;;8.42;93.37;100331.72;5054953;28;20526;-73
2022/01/03 09:15:48;;;;;;;22.40;13.30;;;;;;;8.56;93.39;100329.66;5073675;28;20028;-73
2022/01/03 09:18:17;;;;;;;18.35;11.93;;;;;;;8.62;92.98;100347.03;5072319;28;20472;-67
2022/01/03 09:20:43;;;;;;;18.25;12.50;;;;;;;8.69;92.05;100346.44;5054922;28;20040;-68
2022/01/03 09:23:16;;;;;;;17.23;11.32;;;;;;;8.71;91.57;100330.28;5074251;28;20114;-69
2022/01/03 09:30:57;;;;;;;17.45;11.07;;;;;;;8.78;92.46;100360.88;5076892;28;20112;-73
2022/01/03 09:33:23;;;;;;;17.40;11.88;;;;;;;8.79;92.08;100343.84;5072469;28;20036;-69
2022/01/03 09:35:51;;;;;;;18.27;12.13;;;;;;;8.86;91.20;100345.94;5073856;28;20483;-69
2022/01/03 09:38:16;;;;;;;19.95;12.35;;;;;;;8.85;91.26;100348.72;5080686;28;20032;-69
2022/01/03 09:40:42;;;;;;;19.73;13.10;;;;;;;8.86;91.63;100351.28;5070947;28;20693;-69
2022/01/03 09:43:09;;;;;;;19.77;12.05;;;;;;;8.88;91.57;100353.81;5057950;28;20040;-69
2022/01/03 09:45:37;;;;;;;17.90;11.85;;;;;;;8.96;90.64;100348.69;5091569;28;20471;-68
2022/01/03 09:48:07;;;;;;;18.52;12.15;;;;;;;9.00;90.86;100364.38;5068974;28;20044;-69
2022/01/03 09:50:33;;;;;;;20.23;11.55;;;;;;;8.96;90.58;100368.28;5085384;28;20035;-69
2022/01/03 09:53:02;;;;;;;19.45;11.85;;;;;;;9.00;90.24;100351.00;5092012;28;20031;-68
2022/01/03 09:55:30;;;;;;;19.13;12.45;;;;;;;9.08;89.50;100359.28;5092447;28;20028;-69
2022/01/03 09:57:55;;;;;;;18.70;11.95;;;;;;;9.01;89.93;100342.03;5073874;28;20031;-68
2022/01/03 10:00:24;;;;;;;17.27;11.40;;;;;;;9.05;90.05;100339.94;5091911;28;20016;-68
2022/01/03 10:02:53;;;;;;;18.05;12.30;;;;;;;9.03;90.57;100333.88;5073531;28;20147;-69
2022/01/03 10:05:20;;;;;;;15.63;10.93;;;;;;;9.10;90.28;100340.44;5090266;28;20024;-69
2022/01/03 10:07:47;;;;;;;15.40;10.45;;;;;;;9.15;89.53;100323.00;5053104;28;20032;-70
2022/01/03 10:10:14;;;;;;;17.30;11.20;;;;;;;9.10;89.27;100309.16;5071149;28;20047;-70
2022/01/03 10:12:40;;;;;;;14.82;10.10;;;;;;;9.09;89.37;100310.13;5053355;28;20042;-70
2022/01/03 10:15:08;;;;;;;15.73;10.57;;;;;;;9.22;89.58;100316.19;5071324;28;20029;-69
2022/01/03 10:17:38;;;;;;;15.60;10.52;;;;;;;9.27;89.83;100300.59;5053366;28;20032;-69
2022/01/03 10:20:06;;;;;;;16.50;11.10;;;;;;;9.33;89.16;100297.41;5071535;28;20063;-69
2022/01/03 10:22:34;;;;;;;16.10;10.43;;;;;;;9.33;89.13;100284.00;5071167;28;20025;-69
2022/01/03 10:25:08;;;;;;;16.25;10.70;;;;;;;9.33;89.09;100259.09;5053415;28;20027;-70
2022/01/03 10:28:04;;;;;;;16.73;11.00;;;;;;;9.39;89.10;100263.09;5071538;28;20050;-70
2022/01/03 10:30:45;;;;;;;16.10;10.38;;;;;;;9.38;88.73;100246.16;5054899;28;20044;-69
2022/01/03 10:33:16;;;;;;;17.08;9.90;;;;;;;9.53;87.38;100292.22;5053059;28;20433;-69
2022/01/03 10:35:44;;;;;;;18.08;10.23;;;;;;;9.71;85.99;100274.59;5071090;28;20476;-69
2022/01/03 10:38:11;;;;;;;17.02;10.70;;;;;;;9.59;86.48;100252.41;5052874;28;20025;-70
2022/01/03 10:40:37;;;;;;;17.60;11.25;;;;;;;9.70;86.86;100280.94;5052991;28;20089;-69
2022/01/03 10:43:19;;;;;;;16.42;10.40;;;;;;;9.71;87.33;100318.31;5064295;28;20032;-69
2022/01/03 10:45:45;;;;;;;17.67;10.13;;;;;;;9.67;87.25;100260.63;5091076;28;20040;-69
2022/01/03 10:48:31;;;;;;;16.70;10.50;;;;;;;9.73;87.80;100268.13;5090890;28;20032;-70
2022/01/03 10:50:59;;;;;;;17.70;9.95;;;;;;;9.85;86.89;100298.38;5072443;28;20089;-70
2022/01/03 10:53:39;;;;;;;18.40;10.80;;;;;;;9.80;86.69;100282.69;5078528;28;20033;-70
2022/01/03 10:56:19;;;;;;;16.33;10.32;;;;;;;9.89;85.88;100297.13;5054959;28;20028;-69
2022/01/03 10:58:45;;;;;;;15.35;10.63;;;;;;;9.86;86.30;100262.59;5075393;28;20055;-70
2022/01/03 11:01:24;;;;;;;14.68;9.57;;;;;;;9.86;85.87;100252.72;5070414;28;20032;-70
2022/01/03 11:03:53;;;;;;;15.85;10.38;;;;;;;9.94;86.08;100244.03;5075557;28;20171;-69
2022/01/03 11:11:44;;;;;;;;;;;;;;;9.99;85.45;100268.59;5055833;28;20110;-69
2022/01/03 11:14:30;;;;;;;14.27;9.40;;;;;;;10.00;85.50;100232.78;5052451;28;20416;-70
2022/01/03 11:16:57;;;;;;;14.82;9.25;;;;;;;9.97;85.54;100276.75;5070341;28;20036;-69
2022/01/03 11:19:39;;;;;;;14.82;9.90;;;;;;;10.02;85.76;100287.06;5052505;28;20024;-70
2022/01/03 11:22:07;;;;;;;14.45;9.18;;;;;;;10.03;85.52;100270.03;5070460;28;20354;-69
2022/01/03 11:24:32;;;;;;;13.88;9.10;;;;;;;10.04;85.56;100261.84;5052590;28;20071;-69
2022/01/03 11:26:58;;;;;;;16.58;9.15;;;;;;;10.10;85.37;100266.72;5070138;28;20553;-69
2022/01/03 11:29:30;;;;;;;15.48;8.90;;;;;;;10.11;84.94;100262.19;5070333;28;20032;-70
2022/01/03 11:31:59;;;;;;;15.82;9.63;;;;;;;10.10;84.92;100258.69;5070245;28;20487;-69
2022/01/03 11:34:25;;;;;;;14.45;9.32;;;;;;;10.12;84.68;100245.16;5070231;28;20048;-70